Time;durP1;ratioP1;P1;durP2;ratioP2;P2;SDS_P1;SDS_P2;PMS_P1;PMS_P2;Temp;Humidity;BMP_temperature;BMP_pressure;BME280_temperature;BME280_humidity;BME280_pressure;Samples;Min_cycle;Max_cycle;Signal;HPM_P1;HPM_P2
2024/01/25 00:00:56;;;;;;;58.10;29.55;;;;;;;-142.57;100.00;55701.03;5075745;28;20105;-83
2024/01/25 00:03:22;;;;;;;56.28;29.58;;;;;;;-142.57;100.00;55701.03;5076045;28;20036;-80
2024/01/25 00:05:47;;;;;;;66.43;31.40;;;;;;;-142.57;100.00;55692.94;5074348;28;20489;-82
2024/01/25 00:08:13;;;;;;;57.85;30.33;;;;;;;-142.57;100.00;55709.09;5075705;28;20497;-84
2024/01/25 00:10:39;;;;;;;56.80;28.30;;;;;;;-142.57;100.00;55749.53;5075548;28;20032;-82
2024/01/25 00:13:04;;;;;;;53.28;28.23;;;;;;;-142.57;100.00;55763.66;5086808;28;20037;-80
2024/01/25 00:15:30;;;;;;;61.10;31.00;;;;;;;-142.57;100.00;55753.56;5088664;28;20036;-84
2024/01/25 00:17:56;;;;;;;57.67;29.77;;;;;;;-142.57;100.00;55723.25;5076047;28;20063;-81
2024/01/25 00:20:22;;;;;;;52.58;29.58;;;;;;;-142.57;100.00;55749.53;5076115;28;20441;-79
2024/01/25 00:22:47;;;;;;;56.50;29.67;;;;;;;-142.57;100.00;55761.66;5075534;28;20044;-84
2024/01/25 00:25:13;;;;;;;52.78;28.38;;;;;;;-142.57;100.00;55735.38;5075291;28;20040;-83
2024/01/25 00:27:38;;;;;;;57.05;29.63;;;;;;;-142.57;100.00;55749.53;5074540;28;20489;-83
2024/01/25 00:30:07;;;;;;;59.78;29.08;;;;;;;-142.57;100.00;55763.66;5075610;28;20063;-80
2024/01/25 00:32:33;;;;;;;55.95;28.42;;;;;;;-142.57;100.00;55713.16;5075178;28;20028;-80
2024/01/25 00:34:59;;;;;;;52.67;27.23;;;;;;;-142.57;100.00;55697.00;5075891;28;20043;-79
2024/01/25 00:37:24;;;;;;;52.88;26.05;;;;;;;-142.57;100.00;55737.41;5081831;28;20074;-79
2024/01/25 00:39:50;;;;;;;58.35;26.92;;;;;;;-142.57;100.00;55741.44;5094549;28;20084;-79
2024/01/25 00:42:22;;;;;;;51.88;27.17;;;;;;;-142.57;100.00;55688.91;5099462;28;20021;-77
2024/01/25 00:44:50;;;;;;;54.28;26.73;;;;;;;-142.57;100.00;55660.63;5091557;28;20473;-77
2024/01/25 00:47:16;;;;;;;54.35;25.40;;;;;;;-142.57;100.00;55721.22;5073825;28;20032;-78
2024/01/25 00:49:42;;;;;;;49.22;25.00;;;;;;;-142.57;100.00;55701.03;5074605;28;20390;-80
2024/01/25 00:52:08;;;;;;;57.80;26.80;;;;;;;-142.57;100.00;55688.91;5074703;28;20037;-78
2024/01/25 00:54:34;;;;;;;47.45;25.23;;;;;;;-142.57;100.00;55709.09;5074557;28;20039;-81
2024/01/25 00:57:00;;;;;;;51.97;24.90;;;;;;;-142.57;100.00;55725.28;5074186;28;20036;-78
2024/01/25 00:59:25;;;;;;;48.28;24.17;;;;;;;-142.57;100.00;55699.00;5074089;28;20112;-79
2024/01/25 01:01:53;;;;;;;49.05;25.88;;;;;;;-142.57;100.00;55727.28;5074222;28;20516;-79
2024/01/25 01:04:18;;;;;;;53.10;26.65;;;;;;;-142.57;100.00;55723.25;5073835;28;20036;-79
2024/01/25 01:06:44;;;;;;;52.88;24.58;;;;;;;-142.57;100.00;55733.34;5074088;28;20119;-78
2024/01/25 01:09:10;;;;;;;45.67;24.80;;;;;;;-142.57;100.00;55745.47;5072693;28;20024;-77
2024/01/25 01:11:38;;;;;;;56.38;26.17;;;;;;;-142.57;100.00;55684.88;5074164;28;20071;-77
2024/01/25 01:14:04;;;;;;;46.67;24.45;;;;;;;-142.57;100.00;55713.16;5073992;28;20068;-78
2024/01/25 01:16:32;;;;;;;47.97;25.63;;;;;;;-142.57;100.00;55731.34;5073758;28;20079;-79
2024/01/25 01:19:05;;;;;;;50.15;25.08;;;;;;;-142.57;100.00;55753.56;5073823;28;20031;-77
2024/01/25 01:21:30;;;;;;;;;;;;;;;-142.57;100.00;55749.53;5074101;28;20456;-80
2024/01/25 01:23:56;;;;;;;46.08;23.10;;;;;;;-142.57;100.00;55725.28;5073783;28;19916;-76
2024/01/25 01:26:21;;;;;;;52.55;25.40;;;;;;;-142.57;100.00;55725.28;5073677;28;20492;-79
2024/01/25 01:28:47;;;;;;;56.17;25.83;;;;;;;-142.57;100.00;55802.06;5073896;28;20094;-79
2024/01/25 01:31:12;;;;;;;51.25;25.13;;;;;;;-142.57;100.00;55793.97;5073132;28;20086;-77
2024/01/25 01:33:38;;;;;;;44.75;25.33;;;;;;;-142.57;100.00;55806.09;5089394;28;20500;-78
2024/01/25 01:36:03;;;;;;;47.20;25.58;;;;;;;-142.57;100.00;55822.25;5073379;28;20120;-79
2024/01/25 01:38:29;;;;;;;47.88;24.42;;;;;;;-142.57;100.00;55802.06;5073953;28;20443;-76
2024/01/25 01:40:54;;;;;;;45.50;23.95;;;;;;;-142.57;100.00;55763.66;5073477;28;20458;-79
2024/01/25 01:43:20;;;;;;;50.25;24.65;;;;;;;-142.57;100.00;55743.47;5073593;28;20062;-78
2024/01/25 01:45:46;;;;;;;50.45;25.40;;;;;;;-142.57;100.00;55741.44;5073524;28;20036;-79
2024/01/25 01:48:12;;;;;;;53.20;26.15;;;;;;;-142.57;100.00;55749.53;5073734;28;20040;-79
2024/01/25 01:50:38;;;;;;;49.72;26.88;;;;;;;-142.57;100.00;55773.78;5089105;28;20036;-79
2024/01/25 01:53:04;;;;;;;58.55;27.38;;;;;;;-142.57;100.00;55749.53;5073579;28;20535;-77
2024/01/25 01:55:30;;;;;;;57.35;27.30;;;;;;;-142.57;100.00;55737.41;5073529;28;20051;-80
2024/01/25 01:57:56;;;;;;;56.40;28.27;;;;;;;-142.57;100.00;55765.69;5073865;28;20097;-77
2024/01/25 02:00:24;;;;;;;53.80;26.55;;;;;;;-142.57;100.00;55773.78;5069619;28;20033;-77
2024/01/25 02:02:50;;;;;;;53.17;27.23;;;;;;;-142.57;100.00;55767.72;5082669;28;20084;-78
2024/01/25 02:05:16;;;;;;;53.72;26.83;;;;;;;-142.57;100.00;55771.75;5075398;28;20067;-77
2024/01/25 02:07:42;;;;;;;52.58;26.58;;;;;;;-142.57;100.00;55769.72;5077013;28;20037;-76
2024/01/25 02:10:08;;;;;;;52.83;27.13;;;;;;;-142.57;100.00;55745.47;5073957;28;20044;-77
2024/01/25 02:12:34;;;;;;;58.83;27.25;;;;;;;-142.57;100.00;55707.09;5079604;28;20043;-76
2024/01/25 02:14:59;;;;;;;57.50;27.65;;;;;;;-142.57;100.00;55690.94;5073360;28;20028;-78
2024/01/25 02:17:25;;;;;;;62.17;29.45;;;;;;;-142.57;100.00;55721.22;5072905;28;20033;-77
2024/01/25 02:19:50;;;;;;;53.10;28.90;;;;;;;-142.57;100.00;55745.47;5075232;28;20036;-77
2024/01/25 02:22:20;;;;;;;56.85;29.70;;;;;;;-142.57;100.00;55697.00;5059856;28;20037;-77
2024/01/25 02:24:45;;;;;;;59.65;29.92;;;;;;;-142.57;100.00;55674.75;5085913;28;20221;-77
2024/01/25 02:27:11;;;;;;;61.17;28.73;;;;;;;-142.57;100.00;55684.88;5091681;28;20499;-76
2024/01/25 02:29:36;;;;;;;53.13;25.05;;;;;;;-142.57;100.00;55668.69;5078843;28;20017;-79
2024/01/25 02:32:02;;;;;;;47.70;22.98;;;;;;;-142.57;100.00;55666.69;5074957;28;20485;-78
2024/01/25 02:34:28;;;;;;;44.67;23.85;;;;;;;-142.57;100.00;55652.53;5077088;28;20394;-77
2024/01/25 02:36:53;;;;;;;43.72;21.95;;;;;;;-142.57;100.00;55668.69;5074428;28;20040;-79
2024/01/25 02:39:19;;;;;;;43.78;20.80;;;;;;;-142.57;100.00;55676.78;5079468;28;20469;-77
2024/01/25 02:41:44;;;;;;;41.95;20.02;;;;;;;-142.57;100.00;55721.22;5075493;28;20051;-78
2024/01/25 02:44:11;;;;;;;44.03;20.85;;;;;;;-142.57;100.00;55684.88;5085214;28;20028;-78
2024/01/25 02:46:37;;;;;;;39.17;19.77;;;;;;;-142.57;100.00;55694.97;5074322;28;20178;-76
2024/01/25 02:49:03;;;;;;;39.03;19.52;;;;;;;-142.57;100.00;55676.78;5084813;28;20043;-77
2024/01/25 02:52:06;;;;;;;38.67;19.00;;;;;;;-142.57;100.00;55680.81;5084522;28;20041;-78
2024/01/25 02:54:36;;;;;;;38.80;18.98;;;;;;;-142.57;100.00;55660.63;5098993;28;20084;-77
2024/01/25 02:57:02;;;;;;;34.33;17.17;;;;;;;-142.57;100.00;55672.75;5091659;28;20028;-79
2024/01/25 02:59:27;;;;;;;34.78;17.13;;;;;;;-142.57;100.00;55697.00;5117635;28;20066;-77
2024/01/25 03:01:54;;;;;;;33.53;17.08;;;;;;;-142.57;100.00;55721.22;5098013;28;20042;-76
2024/01/25 03:04:19;;;;;;;31.85;16.98;;;;;;;-142.57;100.00;55697.00;5096788;28;20111;-78
2024/01/25 03:06:45;;;;;;;39.85;17.70;;;;;;;-142.57;100.00;55705.06;5096507;28;20042;-80
2024/01/25 03:09:11;;;;;;;38.03;18.92;;;;;;;-142.57;100.00;55697.00;5095451;28;20066;-77
2024/01/25 03:11:36;;;;;;;36.60;19.00;;;;;;;-142.57;100.00;55660.63;5096505;28;20139;-77
2024/01/25 03:14:02;;;;;;;36.97;18.50;;;;;;;-142.57;100.00;55688.91;5096267;28;20032;-78
2024/01/25 03:16:27;;;;;;;37.90;18.58;;;;;;;-142.57;100.00;55668.69;5096089;28;20488;-78
2024/01/25 03:18:53;;;;;;;40.53;18.95;;;;;;;-142.57;100.00;55668.69;5096453;28;20024;-78
2024/01/25 03:21:18;;;;;;;38.97;19.83;;;;;;;-142.57;100.00;55656.56;5095886;28;20040;-78
2024/01/25 03:23:44;;;;;;;38.35;18.50;;;;;;;-142.57;100.00;55684.88;5096023;28;20032;-78
2024/01/25 03:26:09;;;;;;;37.65;18.70;;;;;;;-142.57;100.00;55652.53;5096317;28;20040;-77
2024/01/25 03:28:39;;;;;;;37.40;18.80;;;;;;;-142.57;100.00;55711.13;5096285;28;20464;-77
2024/01/25 03:31:05;;;;;;;36.72;17.63;;;;;;;-142.57;100.00;55713.16;5096131;28;20036;-80
2024/01/25 03:33:32;;;;;;;36.25;17.75;;;;;;;-142.57;100.00;55713.16;5095934;28;20392;-79
2024/01/25 03:36:07;;;;;;;35.72;17.92;;;;;;;-142.57;100.00;55709.09;5095978;28;20051;-77
2024/01/25 03:38:32;;;;;;;35.75;17.80;;;;;;;-142.57;100.00;55717.19;5096130;28;20142;-77
2024/01/25 03:40:58;;;;;;;35.58;18.33;;;;;;;-142.57;100.00;55701.03;5096067;28;20119;-77
2024/01/25 03:43:26;;;;;;;34.33;17.60;;;;;;;-142.57;100.00;55723.25;5095760;28;20028;-78
2024/01/25 03:45:52;;;;;;;41.92;19.33;;;;;;;-142.57;100.00;55686.88;5096136;28;20094;-79
2024/01/25 03:48:17;;;;;;;38.63;18.73;;;;;;;-142.57;100.00;55701.03;5094511;28;20036;-80
2024/01/25 03:50:43;;;;;;;40.60;19.13;;;;;;;-142.57;100.00;55656.56;5095659;28;20178;-79
2024/01/25 03:53:08;;;;;;;37.88;18.67;;;;;;;-142.57;100.00;55672.75;5095813;28;20039;-80
2024/01/25 03:55:34;;;;;;;41.92;19.40;;;;;;;-142.57;100.00;55644.47;5095116;28;20032;-78
2024/01/25 03:57:59;;;;;;;37.78;18.52;;;;;;;-142.57;100.00;55666.69;5079858;28;20146;-78
2024/01/25 04:00:25;;;;;;;39.05;20.00;;;;;;;-142.57;100.00;55688.91;5074170;28;20068;-81
2024/01/25 04:02:51;;;;;;;47.63;20.92;;;;;;;-142.57;100.00;55656.56;5075232;28;20146;-80
2024/01/25 04:05:17;;;;;;;38.08;20.08;;;;;;;-142.57;100.00;55614.16;5082998;28;20020;-81
2024/01/25 04:07:42;;;;;;;46.42;20.73;;;;;;;-142.57;100.00;55610.09;5093600;28;20028;-77
2024/01/25 04:10:08;;;;;;;39.25;20.95;;;;;;;-142.57;100.00;55608.09;5085221;28;20043;-78
2024/01/25 04:12:33;;;;;;;47.67;21.92;;;;;;;-142.57;100.00;55589.91;5075328;28;20036;-81
2024/01/25 04:14:59;;;;;;;38.33;21.20;;;;;;;-142.57;100.00;55589.91;5079501;28;20032;-80
2024/01/25 04:17:25;;;;;;;44.28;22.05;;;;;;;-142.57;100.00;55604.03;5075296;28;20047;-78
2024/01/25 04:19:50;;;;;;;41.92;20.58;;;;;;;-142.57;100.00;55640.41;5079267;28;20040;-77
2024/01/25 04:22:16;;;;;;;51.65;22.38;;;;;;;-142.57;100.00;55585.84;5075266;28;20489;-77
2024/01/25 04:24:43;;;;;;;42.28;21.70;;;;;;;-142.57;100.00;55626.28;5078389;28;20398;-79
2024/01/25 04:27:10;;;;;;;43.95;21.40;;;;;;;-142.57;100.00;55604.03;5068212;28;20064;-78
2024/01/25 04:29:42;;;;;;;42.53;21.40;;;;;;;-142.57;100.00;55612.13;5078863;28;20033;-78
2024/01/25 04:32:08;;;;;;;51.55;24.13;;;;;;;-142.57;100.00;55587.88;5074607;28;20097;-79
2024/01/25 04:34:33;;;;;;;44.15;22.40;;;;;;;-142.57;100.00;55600.00;5078803;28;20020;-77
2024/01/25 04:36:59;;;;;;;49.58;24.52;;;;;;;-142.57;100.00;55587.88;5083998;28;20040;-77
2024/01/25 04:39:24;;;;;;;46.80;23.23;;;;;;;-142.57;100.00;55595.97;5080839;28;20036;-77
2024/01/25 04:41:50;;;;;;;47.00;22.25;;;;;;;-142.57;100.00;55618.19;5084885;28;20047;-81
2024/01/25 04:44:15;;;;;;;46.63;22.98;;;;;;;-142.57;100.00;55638.41;5074318;28;20036;-77
2024/01/25 04:46:42;;;;;;;42.53;21.50;;;;;;;-142.57;100.00;55628.28;5073834;28;20108;-77
2024/01/25 04:49:07;;;;;;;43.80;21.92;;;;;;;-142.57;100.00;55652.53;5081148;28;20040;-78
2024/01/25 04:51:33;;;;;;;44.55;22.52;;;;;;;-142.57;100.00;55616.16;5079571;28;20089;-79
2024/01/25 04:53:58;;;;;;;47.17;23.52;;;;;;;-142.57;100.00;55587.88;5079905;28;20020;-79
2024/01/25 04:56:24;;;;;;;46.03;23.75;;;;;;;-142.57;100.00;55606.06;5078679;28;20437;-79
2024/01/25 04:58:49;;;;;;;51.75;26.80;;;;;;;-142.57;100.00;55569.69;5084195;28;20482;-79
2024/01/25 05:01:15;;;;;;;50.53;26.63;;;;;;;-142.57;100.00;55521.22;5082311;28;20031;-78
2024/01/25 05:03:40;;;;;;;58.05;28.63;;;;;;;-142.57;100.00;55539.38;5074232;28;20446;-78
2024/01/25 05:06:06;;;;;;;62.03;30.02;;;;;;;-142.57;100.00;55474.72;5073398;28;20033;-79
2024/01/25 05:08:31;;;;;;;61.67;28.70;;;;;;;-142.57;100.00;55466.66;5075391;28;20111;-77
2024/01/25 05:10:57;;;;;;;64.25;29.90;;;;;;;-142.57;100.00;55428.25;5091647;28;20044;-77
2024/01/25 05:13:23;;;;;;;64.78;31.42;;;;;;;-142.57;100.00;55478.78;5088800;28;20028;-80
2024/01/25 05:15:48;;;;;;;63.55;31.98;;;;;;;-142.57;100.00;55430.28;5078498;28;20013;-80
2024/01/25 05:18:14;;;;;;;67.60;31.90;;;;;;;-142.57;100.00;55474.72;5061495;28;20044;-78
2024/01/25 05:20:40;;;;;;;66.25;31.42;;;;;;;-142.57;100.00;55472.72;5055573;28;20496;-79
2024/01/25 05:23:06;;;;;;;60.97;31.45;;;;;;;-142.57;100.00;55482.81;5054359;28;20045;-79
2024/01/25 05:25:31;;;;;;;68.07;32.10;;;;;;;-142.57;100.00;55527.28;5040125;28;20041;-81
2024/01/25 05:27:57;;;;;;;60.22;30.63;;;;;;;-142.57;100.00;55535.34;5069234;28;20039;-79
2024/01/25 05:30:24;;;;;;;54.00;28.02;;;;;;;-142.57;100.00;55535.34;5056227;28;20435;-84
2024/01/25 05:32:50;;;;;;;59.92;30.77;;;;;;;-142.57;100.00;55543.44;5053765;28;20395;-77
2024/01/25 05:35:17;;;;;;;63.88;30.70;;;;;;;-142.57;100.00;55517.16;5051868;28;20045;-76
2024/01/25 05:37:43;;;;;;;58.60;30.10;;;;;;;-142.57;100.00;55575.75;5053560;28;20025;-80
2024/01/25 05:40:09;;;;;;;58.75;30.90;;;;;;;-142.57;100.00;55557.56;5035698;28;20037;-77
2024/01/25 05:42:35;;;;;;;60.25;30.98;;;;;;;-142.57;100.00;55555.56;5053241;28;20033;-77
2024/01/25 05:45:04;;;;;;;67.03;31.65;;;;;;;-142.57;100.00;55559.59;5052255;28;20040;-78
2024/01/25 05:47:30;;;;;;;61.50;32.08;;;;;;;-142.57;100.00;55591.91;5052465;28;20064;-79
2024/01/25 05:49:56;;;;;;;75.00;32.15;;;;;;;-142.57;100.00;55604.03;5053024;28;20484;-78
2024/01/25 05:52:23;;;;;;;59.67;31.65;;;;;;;-142.57;100.00;55583.84;5056372;28;20064;-79
2024/01/25 05:54:49;;;;;;;63.88;30.70;;;;;;;-142.57;100.00;55567.69;5070563;28;20050;-80
2024/01/25 05:57:15;;;;;;;79.68;34.67;;;;;;;-142.57;100.00;55595.97;5073288;28;20039;-79
2024/01/25 05:59:40;;;;;;;71.28;32.22;;;;;;;-142.57;100.00;55555.56;5073178;28;20039;-79
2024/01/25 06:02:07;;;;;;;62.90;32.22;;;;;;;-142.57;100.00;55575.75;5071099;28;20334;-76
2024/01/25 06:04:33;;;;;;;74.80;36.30;;;;;;;-142.57;100.00;55600.00;5067699;28;20033;-79
2024/01/25 06:06:58;;;;;;;66.40;34.88;;;;;;;-142.57;100.00;55620.22;5075231;28;20436;-81
2024/01/25 06:09:27;;;;;;;70.82;34.20;;;;;;;-142.57;100.00;55604.03;5071721;28;20028;-79
2024/01/25 06:11:52;;;;;;;62.17;31.48;;;;;;;-142.57;100.00;55575.75;5077566;28;20036;-79
2024/01/25 06:14:18;;;;;;;59.72;30.45;;;;;;;-142.57;100.00;55577.78;5076639;28;20105;-81
2024/01/25 06:16:44;;;;;;;59.08;31.23;;;;;;;-142.57;100.00;55575.75;5083580;28;20062;-78
2024/01/25 06:19:10;;;;;;;59.45;30.23;;;;;;;-142.57;100.00;55529.28;5087664;28;20390;-79
2024/01/25 06:21:37;;;;;;;62.05;31.95;;;;;;;-142.57;100.00;55555.56;5081265;28;20127;-82
2024/01/25 06:24:03;;;;;;;58.63;31.38;;;;;;;-142.57;100.00;55511.09;5085617;28;20427;-78
2024/01/25 06:26:29;;;;;;;68.45;35.38;;;;;;;-142.57;100.00;55549.50;5080200;28;20045;-80
2024/01/25 06:28:55;;;;;;;64.20;33.17;;;;;;;-142.57;100.00;55511.09;5081338;28;20028;-77
2024/01/25 06:31:20;;;;;;;64.32;32.70;;;;;;;-142.57;100.00;55543.44;5085045;28;20108;-79
2024/01/25 06:33:50;;;;;;;60.13;31.83;;;;;;;-142.57;100.00;55507.06;5072584;28;20055;-78
2024/01/25 06:36:16;;;;;;;67.05;31.92;;;;;;;-142.57;100.00;55515.16;5084964;28;20028;-79
2024/01/25 06:38:41;;;;;;;74.60;34.15;;;;;;;-142.57;100.00;55498.97;5079756;28;20150;-78
2024/01/25 06:41:08;;;;;;;70.35;34.78;;;;;;;-142.57;100.00;55448.47;5079199;28;20059;-82
2024/01/25 06:43:33;;;;;;;70.90;35.15;;;;;;;-142.57;100.00;55462.63;5071516;28;20080;-80
2024/01/25 06:45:59;;;;;;;61.22;34.05;;;;;;;-142.57;100.00;55472.72;5085591;28;20052;-79
2024/01/25 06:48:24;;;;;;;71.90;35.05;;;;;;;-142.57;100.00;55478.78;5078958;28;20123;-80
2024/01/25 06:50:50;;;;;;;68.05;34.75;;;;;;;-142.57;100.00;55446.44;5082184;28;20058;-81
2024/01/25 06:53:17;;;;;;;59.20;32.13;;;;;;;-142.57;100.00;55446.44;5072184;28;20029;-79
2024/01/25 06:55:42;;;;;;;73.28;34.65;;;;;;;-142.57;100.00;55482.81;5077078;28;20033;-80
2024/01/25 06:58:08;;;;;;;64.90;32.88;;;;;;;-142.57;100.00;55503.03;5075354;28;20037;-78
2024/01/25 07:00:34;;;;;;;68.38;34.70;;;;;;;-142.57;100.00;55490.91;5080382;28;20028;-81
2024/01/25 07:03:00;;;;;;;69.82;34.45;;;;;;;-142.57;100.00;55472.72;5091427;28;20480;-80
2024/01/25 07:05:26;;;;;;;64.45;32.30;;;;;;;-142.57;100.00;55555.56;5093112;28;20032;-79
2024/01/25 07:07:52;;;;;;;71.68;34.25;;;;;;;-142.57;100.00;55561.63;5093919;28;20461;-79
2024/01/25 07:10:17;;;;;;;75.50;34.17;;;;;;;-142.57;100.00;55575.75;5094327;28;20107;-80
2024/01/25 07:12:44;;;;;;;67.72;33.15;;;;;;;-142.57;100.00;55529.28;5094449;28;20082;-80
2024/01/25 07:15:09;;;;;;;64.85;32.22;;;;;;;-142.57;100.00;55620.22;5093646;28;20425;-79
2024/01/25 07:17:35;;;;;;;56.30;30.98;;;;;;;-142.57;100.00;55626.28;5092629;28;20039;-79
2024/01/25 07:20:00;;;;;;;60.15;31.77;;;;;;;-142.57;100.00;55725.28;5093261;28;20025;-80
2024/01/25 07:22:29;;;;;;;58.88;30.02;;;;;;;-142.57;100.00;55781.84;5093525;28;20036;-80
2024/01/25 07:24:54;;;;;;;53.50;28.60;;;;;;;-142.57;100.00;55798.00;5097640;28;20027;-80
2024/01/25 07:27:20;;;;;;;56.60;28.65;;;;;;;-142.57;100.00;55907.13;5114092;28;20009;-79
2024/01/25 07:29:48;;;;;;;53.45;25.58;;;;;;;-142.57;100.00;55933.41;5119359;28;20028;-78
2024/01/25 07:32:14;;;;;;;48.85;24.17;;;;;;;-142.57;100.00;55890.97;5115914;28;20036;-80
2024/01/25 07:34:39;;;;;;;46.63;23.10;;;;;;;-142.57;100.00;55947.53;5099290;28;20450;-79
2024/01/25 07:37:11;;;;;;;43.13;19.73;;;;;;;-142.57;100.00;55846.50;5096830;28;20028;-80
2024/01/25 07:39:37;;;;;;;36.15;19.13;;;;;;;-142.57;100.00;55975.84;5096809;28;20050;-79
2024/01/25 07:42:02;;;;;;;33.67;17.20;;;;;;;-142.57;100.00;55996.03;5096084;28;20124;-81
2024/01/25 07:44:28;;;;;;;38.97;20.05;;;;;;;-142.57;100.00;55977.84;5096069;28;20032;-81
2024/01/25 07:46:53;;;;;;;49.38;22.67;;;;;;;-142.57;100.00;56024.31;5096655;28;20362;-78
2024/01/25 07:49:20;;;;;;;36.53;19.60;;;;;;;-142.57;100.00;55971.78;5096396;28;20035;-80
2024/01/25 07:51:46;;;;;;;36.05;18.67;;;;;;;-142.57;100.00;56008.16;5096514;28;20024;-80
2024/01/25 07:54:12;;;;;;;35.80;19.40;;;;;;;-142.57;100.00;56036.44;5096018;28;20075;-80
2024/01/25 07:56:40;;;;;;;38.17;19.05;;;;;;;-142.57;100.00;56089.00;5096020;28;20115;-79
2024/01/25 07:59:06;;;;;;;46.75;20.13;;;;;;;-142.57;100.00;56060.69;5095075;28;20085;-79
2024/01/25 08:01:31;;;;;;;35.95;19.88;;;;;;;-142.57;100.00;56058.69;5095632;28;20401;-81
2024/01/25 08:03:57;;;;;;;48.45;20.63;;;;;;;-142.57;100.00;56125.38;5095833;28;20039;-78
2024/01/25 08:06:22;;;;;;;38.75;20.13;;;;;;;-142.57;100.00;56161.72;5094310;28;20032;-81
2024/01/25 08:08:48;;;;;;;44.05;22.52;;;;;;;-142.57;100.00;56185.97;5095789;28;20032;-80
2024/01/25 08:11:18;;;;;;;49.20;24.25;;;;;;;-142.57;100.00;56135.47;5095430;28;20042;-77
2024/01/25 08:13:43;;;;;;;50.20;25.23;;;;;;;-142.57;100.00;56147.59;5095609;28;20115;-79
2024/01/25 08:16:13;;;;;;;46.80;24.83;;;;;;;-142.57;100.00;56202.16;5095600;28;20158;-79
2024/01/25 08:18:39;;;;;;;54.25;27.70;;;;;;;-142.57;100.00;56060.69;5095455;28;20374;-79
2024/01/25 08:21:05;;;;;;;51.72;27.20;;;;;;;-142.57;100.00;56068.78;5095336;28;20548;-77
2024/01/25 08:23:31;;;;;;;55.13;28.73;;;;;;;-142.57;100.00;55951.59;5094125;28;20225;-78
2024/01/25 08:25:57;;;;;;;60.58;29.83;;;;;;;-142.57;100.00;55899.03;5095370;28;20067;-78
2024/01/25 08:28:22;;;;;;;61.58;30.50;;;;;;;-142.57;100.00;55866.72;5095070;28;20036;-78
2024/01/25 08:30:48;;;;;;;64.03;31.10;;;;;;;-142.57;100.00;55822.25;5095025;28;20465;-78
2024/01/25 08:33:16;;;;;;;63.85;31.35;;;;;;;-142.57;100.00;55814.19;5095371;28;20047;-77
2024/01/25 08:35:42;;;;;;;56.95;31.15;;;;;;;-142.57;100.00;55814.19;5095225;28;20105;-79
2024/01/25 08:38:07;;;;;;;62.70;31.90;;;;;;;-142.57;100.00;55838.44;5095700;28;20082;-80
2024/01/25 08:40:36;;;;;;;57.00;31.63;;;;;;;-142.57;100.00;55793.97;5096521;28;20025;-78
2024/01/25 08:43:01;;;;;;;66.60;33.53;;;;;;;-142.57;100.00;55749.53;5093733;28;20118;-80
2024/01/25 08:45:27;;;;;;;62.13;33.92;;;;;;;-142.57;100.00;55777.81;5095111;28;20142;-80
2024/01/25 08:47:52;;;;;;;66.18;33.55;;;;;;;-142.57;100.00;55779.84;5094997;28;20024;-78
2024/01/25 08:50:18;;;;;;;63.60;33.17;;;;;;;-142.57;100.00;55810.13;5093721;28;20032;-79
2024/01/25 08:52:44;;;;;;;67.78;33.95;;;;;;;-142.57;100.00;55838.44;5095032;28;20090;-78
2024/01/25 08:55:10;;;;;;;64.63;32.95;;;;;;;-142.57;100.00;55858.63;5093869;28;20067;-80
2024/01/25 08:57:35;;;;;;;62.42;31.23;;;;;;;-142.57;100.00;55909.16;5095026;28;20058;-79
2024/01/25 09:00:02;;;;;;;67.32;32.78;;;;;;;-142.57;100.00;55866.72;5094087;28;20067;-79
2024/01/25 09:02:29;;;;;;;68.80;34.50;;;;;;;-142.57;100.00;55895.00;5094878;28;20054;-79
2024/01/25 09:04:55;;;;;;;66.50;33.15;;;;;;;-142.57;100.00;55858.63;5094852;28;20089;-79
2024/01/25 09:07:21;;;;;;;67.88;32.42;;;;;;;-142.57;100.00;55921.28;5094768;28;20024;-78
2024/01/25 09:09:47;;;;;;;60.83;32.63;;;;;;;-142.57;100.00;55919.25;5094800;28;20071;-78
2024/01/25 09:12:14;;;;;;;67.47;31.88;;;;;;;-142.57;100.00;55905.09;5094590;28;20060;-78
2024/01/25 09:14:40;;;;;;;62.97;31.92;;;;;;;-142.57;100.00;55917.22;5094609;28;20043;-79
2024/01/25 09:17:05;;;;;;;64.22;33.00;;;;;;;-142.57;100.00;55955.63;5094707;28;20032;-80
2024/01/25 09:19:31;;;;;;;64.47;32.75;;;;;;;-142.57;100.00;55927.34;5094698;28;20115;-79
2024/01/25 09:21:59;;;;;;;64.82;32.47;;;;;;;-142.57;100.00;55963.72;5092841;28;20044;-81
2024/01/25 09:24:25;;;;;;;65.25;32.22;;;;;;;-142.57;100.00;55951.59;5094459;28;20023;-79
2024/01/25 09:26:51;;;;;;;56.17;31.25;;;;;;;-142.57;100.00;55895.00;5094355;28;20397;-78
2024/01/25 09:29:16;;;;;;;65.72;34.38;;;;;;;-142.57;100.00;55846.50;5094346;28;20484;-79
2024/01/25 09:31:42;;;;;;;68.55;33.00;;;;;;;-142.57;100.00;55919.25;5092899;28;20039;-80
2024/01/25 09:34:07;;;;;;;57.72;32.10;;;;;;;-142.57;100.00;55927.34;5094417;28;20082;-79
2024/01/25 09:36:33;;;;;;;63.55;34.10;;;;;;;-142.57;100.00;55919.25;5093113;28;20028;-80
2024/01/25 09:38:58;;;;;;;70.22;31.58;;;;;;;-142.57;100.00;55931.38;5094812;28;20025;-80
2024/01/25 09:41:24;;;;;;;60.53;32.42;;;;;;;-142.57;100.00;55955.63;5100004;28;20089;-78
2024/01/25 09:43:49;;;;;;;61.58;30.98;;;;;;;-142.57;100.00;55983.91;5116990;28;20052;-78
2024/01/25 09:46:15;;;;;;;57.63;31.25;;;;;;;-142.57;100.00;55955.63;5119044;28;20023;-79
2024/01/25 09:48:46;;;;;;;53.83;31.17;;;;;;;-142.57;100.00;55927.34;5096447;28;20093;-79
2024/01/25 09:51:12;;;;;;;64.45;32.58;;;;;;;-142.57;100.00;55915.22;5092983;28;20036;-78
2024/01/25 09:53:42;;;;;;;63.10;33.85;;;;;;;-142.57;100.00;55897.03;5093641;28;20137;-81
2024/01/25 09:56:09;;;;;;;64.68;35.10;;;;;;;-142.57;100.00;55878.84;5094084;28;20084;-80
2024/01/25 09:58:41;;;;;;;59.65;34.25;;;;;;;-142.57;100.00;55911.16;5092454;28;20040;-81
2024/01/25 10:01:12;;;;;;;55.78;32.03;;;;;;;-142.57;100.00;55947.53;5092435;28;20047;-81
2024/01/25 10:03:40;;;;;;;76.18;35.60;;;;;;;-142.57;100.00;55996.03;5093705;28;20040;-80
2024/01/25 10:06:06;;;;;;;62.28;34.17;;;;;;;-142.57;100.00;56040.50;5092909;28;20050;-81
2024/01/25 10:08:32;;;;;;;58.85;33.85;;;;;;;-142.57;100.00;56052.63;5093838;28;20039;-80
2024/01/25 10:10:57;;;;;;;66.20;34.28;;;;;;;-142.57;100.00;56056.66;5093896;28;20032;-79
2024/01/25 10:13:23;;;;;;;70.28;35.90;;;;;;;-142.57;100.00;56072.81;5092894;28;20070;-80
2024/01/25 10:15:48;;;;;;;64.90;35.47;;;;;;;-142.57;100.00;56064.75;5093683;28;20511;-78
2024/01/25 10:18:15;;;;;;;75.55;37.78;;;;;;;-142.57;100.00;56060.69;5093500;28;20028;-79
2024/01/25 10:20:42;;;;;;;80.68;38.42;;;;;;;-142.57;100.00;56008.16;5092253;28;20036;-78
2024/01/25 10:23:08;;;;;;;69.57;40.00;;;;;;;-142.57;100.00;56064.75;5093266;28;20040;-77
2024/01/25 10:25:38;;;;;;;79.20;39.53;;;;;;;-142.57;100.00;56034.44;5093332;28;20047;-79
2024/01/25 10:28:04;;;;;;;166.43;41.30;;;;;;;-142.57;100.00;56103.13;5093182;28;20047;-78
2024/01/25 10:30:36;;;;;;;98.47;41.60;;;;;;;-142.57;100.00;56121.31;5093261;28;20032;-80
2024/01/25 10:33:04;;;;;;;92.60;39.80;;;;;;;-142.57;100.00;56137.50;5093490;28;20139;-79
2024/01/25 10:35:31;;;;;;;145.30;44.60;;;;;;;-142.57;100.00;56101.13;5092054;28;20086;-79
2024/01/25 10:37:56;;;;;;;75.80;39.05;;;;;;;-142.57;100.00;56133.44;5093350;28;20043;-82
2024/01/25 10:40:22;;;;;;;70.32;40.00;;;;;;;-142.57;100.00;56093.03;5091964;28;20059;-80
2024/01/25 10:42:48;;;;;;;79.68;43.28;;;;;;;-142.57;100.00;56008.16;5093078;28;20047;-77
2024/01/25 10:45:14;;;;;;;85.55;46.42;;;;;;;-142.57;100.00;56050.59;5093220;28;20032;-79
2024/01/25 10:47:44;;;;;;;79.40;41.55;;;;;;;-142.57;100.00;56068.78;5093213;28;20035;-78
2024/01/25 10:50:13;;;;;;;75.90;43.17;;;;;;;-142.57;100.00;56084.94;5093584;28;20064;-79